Impacts TAF Board INFO
FOR SITUATIONAL AWARENESS. NOT TO BE USED FOR FLIGHT PLANNING PURPOSES.
IDs:

KPDX - Portland Intl Arpt, OR, US

Issued at 1727 UTC 19 Jan 2017
Updated at 1911 UTC 19 Jan 2017
Potential Impact None Slight Moderate High
Time1853Z 19/20Z 19/21Z 19/22Z 19/23Z 20/00Z 20/01Z 20/02Z 20/03Z 20/04Z 20/05Z 20/06Z 20/07Z 20/08Z
Type OBS PRVL PRVL PRVL PRVL PRVL PRVL PRVL PRVL PRVL PRVL PRVL PRVL PRVL
VIS 10 >6 >6 >6 >6 >6 >6 >6 >6 >6 >6 >6 >6 >6
CIG 43 40 40 40 40 50 50 50 50 50 50 80 80 80
Cover BKN BKN BKN BKN BKN BKN BKN BKN BKN BKN BKN BKN BKN BKN
FltCat VFR VFR VFR VFR VFR VFR VFR VFR VFR VFR VFR VFR VFR VFR
WX -- -SHRA -SHRA -SHRA -SHRA VCSH VCSH VCSH VCSH VCSH VCSH -- -- --
WDir 200 130 130 130 130 130 130 130 130 130 130 90 90 90
WSpd 15 9 9 9 9 8 8 8 8 8 8 8 8 8
WGst -- -- -- -- -- -- -- -- -- -- -- -- -- --

Raw TAF
KPDX 191727Z 1918/2018 13009KT P6SM -SHRA SCT025 BKN040 BKN060
  FM200000 13008KT P6SM VCSH SCT025 BKN050
  FM200600 09008KT P6SM BKN080
  FM201500 09012G20KT P6SM -RA OVC050


Raw METAR
KPDX 191853Z 20015KT 10SM SCT027 BKN043 09/04 A2962 RMK AO2 SLP030 T00890044
KPDX 191753Z 18013KT 10SM FEW015 SCT048 BKN220 08/04 A2962 RMK AO2 SLP030 60000 T00830044 10083 20022 51012
KPDX 191653Z 14009KT 7SM SCT043 BKN055 BKN070 03/02 A2962 RMK AO2 SLP030 T00280017

METAR Board
Radar Display
Forecast Discussion

FOR SITUATIONAL AWARENESS. NOT TO BE USED FOR FLIGHT PLANNING PURPOSES.

Page loaded:  19:11 UTC  |   11:11 AM Pacific  |   12:11 PM Mountain  |   01:11 PM Central  |   02:11 PM Eastern

 

ADVISORIES

FORECASTS

FORECASTS

OBSERVATIONS

USER TOOLS

ABOUT US